createdAt,value
2018-10-15T00:00:20.078Z,954.46
2018-10-15T00:01:19.963Z,954.49
2018-10-15T00:02:19.968Z,954.48
2018-10-15T00:03:19.974Z,954.46
2018-10-15T00:04:19.981Z,954.52
2018-10-15T00:05:19.990Z,954.47
2018-10-15T00:06:19.996Z,954.52
2018-10-15T00:07:20.001Z,954.47
2018-10-15T00:08:20.066Z,954.45
2018-10-15T00:09:20.015Z,954.49
2018-10-15T00:10:20.026Z,954.48
2018-10-15T00:11:20.028Z,954.54
2018-10-15T00:12:20.035Z,954.5
2018-10-15T00:13:20.041Z,954.49
2018-10-15T00:14:20.052Z,954.46
2018-10-15T00:15:20.058Z,954.47
2018-10-15T00:16:20.061Z,954.43
2018-10-15T00:17:20.068Z,954.51
2018-10-15T00:18:20.125Z,954.49
2018-10-15T00:19:20.082Z,954.49
2018-10-15T00:20:20.087Z,954.48
2018-10-15T00:21:20.094Z,954.49
2018-10-15T00:22:20.101Z,954.53
2018-10-15T00:23:20.156Z,954.48
2018-10-15T00:24:20.113Z,954.46
2018-10-15T00:25:20.120Z,954.44
2018-10-15T00:26:20.130Z,954.46
2018-10-15T00:27:20.132Z,954.5
2018-10-15T00:28:20.139Z,954.5
2018-10-15T00:29:20.146Z,954.46
2018-10-15T00:30:20.152Z,954.46
2018-10-15T00:31:20.164Z,954.46
2018-10-15T00:32:20.165Z,954.49
2018-10-15T00:33:20.172Z,954.51
2018-10-15T00:34:20.177Z,954.45
2018-10-15T00:35:20.188Z,954.44
2018-10-15T00:36:20.192Z,954.41
2018-10-15T00:37:20.199Z,954.47
2018-10-15T00:38:20.253Z,954.51
2018-10-15T00:39:20.215Z,954.46
2018-10-15T00:40:20.218Z,954.5
2018-10-15T00:41:20.223Z,954.5
2018-10-15T00:42:20.243Z,954.48
2018-10-15T00:43:20.237Z,954.48
2018-10-15T00:44:20.248Z,954.47
2018-10-15T00:45:20.249Z,954.46
2018-10-15T00:46:20.255Z,954.52
2018-10-15T00:47:20.262Z,954.46
2018-10-15T00:48:20.270Z,954.49
2018-10-15T00:49:20.275Z,954.45
2018-10-15T00:50:20.280Z,954.47
2018-10-15T00:51:20.290Z,954.47
2018-10-15T00:52:20.294Z,954.45
2018-10-15T00:53:20.400Z,954.47
2018-10-15T00:54:20.305Z,954.45
2018-10-15T00:55:20.313Z,954.46
2018-10-15T00:56:20.319Z,954.41
2018-10-15T00:57:20.327Z,954.42
2018-10-15T00:58:20.332Z,954.39
2018-10-15T00:59:20.339Z,954.41
2018-10-15T01:00:20.344Z,954.36
2018-10-15T01:01:20.351Z,954.38
2018-10-15T01:02:20.357Z,954.37
2018-10-15T01:03:20.358Z,954.42
2018-10-15T01:04:20.366Z,954.41
2018-10-15T01:05:20.373Z,954.43
2018-10-15T01:06:20.379Z,954.44
2018-10-15T01:07:20.384Z,954.44
2018-10-15T01:08:20.440Z,954.4
2018-10-15T01:09:20.396Z,954.49
2018-10-15T01:10:20.403Z,954.45
2018-10-15T01:11:20.408Z,954.46
2018-10-15T01:12:20.416Z,954.45
2018-10-15T01:13:20.424Z,954.47
2018-10-15T01:14:20.429Z,954.46
2018-10-15T01:15:20.435Z,954.45
2018-10-15T01:16:20.441Z,954.46
2018-10-15T01:17:20.450Z,954.44
2018-10-15T01:18:20.455Z,954.47
2018-10-15T01:19:20.553Z,954.47
2018-10-15T01:20:20.467Z,954.51
2018-10-15T01:21:20.473Z,954.48
2018-10-15T01:22:20.478Z,954.48
2018-10-15T01:23:20.534Z,954.51
2018-10-15T01:24:20.491Z,954.51
2018-10-15T01:25:20.494Z,954.5
2018-10-15T01:26:20.503Z,954.49
2018-10-15T01:27:20.510Z,954.52
2018-10-15T01:28:20.565Z,954.52
2018-10-15T01:29:20.564Z,954.52
2018-10-15T01:30:20.527Z,954.55
2018-10-15T01:31:20.532Z,954.53
2018-10-15T01:32:20.539Z,954.55
2018-10-15T01:33:20.542Z,954.52
2018-10-15T01:34:20.549Z,954.53
2018-10-15T01:35:20.555Z,954.54
2018-10-15T01:36:20.562Z,954.54
2018-10-15T01:37:20.568Z,954.55
2018-10-15T01:38:21.574Z,954.55
2018-10-15T01:39:20.579Z,954.52
2018-10-15T01:40:20.583Z,954.52
2018-10-15T01:41:20.590Z,954.48
2018-10-15T01:42:20.595Z,954.47
2018-10-15T01:43:20.652Z,954.45
2018-10-15T01:44:20.607Z,954.47
2018-10-15T01:45:20.617Z,954.45
2018-10-15T01:46:20.621Z,954.51
2018-10-15T01:47:20.624Z,954.48
2018-10-15T01:48:20.630Z,954.51
2018-10-15T01:49:20.636Z,954.49
2018-10-15T01:50:20.642Z,954.48
2018-10-15T01:51:20.646Z,954.52
2018-10-15T01:52:20.652Z,954.51
2018-10-15T01:53:20.709Z,954.51
2018-10-15T01:54:20.667Z,954.5
2018-10-15T01:55:20.676Z,954.49
2018-10-15T01:56:20.676Z,954.5
2018-10-15T01:57:20.685Z,954.52
2018-10-15T01:58:20.687Z,954.52
2018-10-15T01:59:20.693Z,954.56
2018-10-15T02:00:20.699Z,954.57
2018-10-15T02:01:20.706Z,954.53
2018-10-15T02:02:20.710Z,954.58
2018-10-15T02:03:20.720Z,954.54
2018-10-15T02:04:20.728Z,954.55
2018-10-15T02:05:20.729Z,954.57
2018-10-15T02:06:20.732Z,954.55
2018-10-15T02:07:20.740Z,954.56
2018-10-15T02:08:20.795Z,954.53
2018-10-15T02:09:20.748Z,954.57
2018-10-15T02:10:20.754Z,954.53
2018-10-15T02:11:20.761Z,954.58
2018-10-15T02:12:20.768Z,954.57
2018-10-15T02:13:20.772Z,954.58
2018-10-15T02:14:20.776Z,954.55
2018-10-15T02:15:20.783Z,954.54
2018-10-15T02:16:20.788Z,954.59
2018-10-15T02:17:20.795Z,954.58
2018-10-15T02:18:20.799Z,954.57
2018-10-15T02:19:20.805Z,954.57
2018-10-15T02:20:20.810Z,954.54
2018-10-15T02:21:20.819Z,954.54
2018-10-15T02:22:20.823Z,954.56
2018-10-15T02:23:20.878Z,954.56
2018-10-15T02:24:20.832Z,954.54
2018-10-15T02:25:20.839Z,954.52
2018-10-15T02:26:20.844Z,954.6
2018-10-15T02:27:20.850Z,954.56
2018-10-15T02:28:20.853Z,954.58
2018-10-15T02:29:20.860Z,954.62
2018-10-15T02:30:20.873Z,954.63
2018-10-15T02:31:20.973Z,954.6
2018-10-15T02:32:20.876Z,954.63
2018-10-15T02:33:20.881Z,954.6
2018-10-15T02:34:20.887Z,954.59
2018-10-15T02:35:20.894Z,954.6
2018-10-15T02:36:20.897Z,954.56
2018-10-15T02:37:20.903Z,954.55
2018-10-15T02:38:20.958Z,954.56
2018-10-15T02:39:20.914Z,954.61
2018-10-15T02:40:20.918Z,954.57
2018-10-15T02:41:20.925Z,954.57
2018-10-15T02:42:20.929Z,954.6
2018-10-15T02:43:20.935Z,954.63
2018-10-15T02:44:20.940Z,954.6
2018-10-15T02:45:20.970Z,954.6
2018-10-15T02:46:20.950Z,954.62
2018-10-15T02:47:20.955Z,954.64
2018-10-15T02:48:20.961Z,954.6
2018-10-15T02:49:20.966Z,954.62
2018-10-15T02:50:20.976Z,954.64
2018-10-15T02:51:20.978Z,954.67
2018-10-15T02:52:20.984Z,954.68
2018-10-15T02:53:21.037Z,954.7
2018-10-15T02:54:20.992Z,954.74
2018-10-15T02:55:20.998Z,954.77
2018-10-15T02:56:21.010Z,954.74
2018-10-15T02:57:21.008Z,954.73
2018-10-15T02:58:21.022Z,954.73
2018-10-15T02:59:21.021Z,954.76
2018-10-15T03:00:21.023Z,954.75
2018-10-15T03:01:21.028Z,954.74
2018-10-15T03:02:21.032Z,954.67
2018-10-15T03:03:21.038Z,954.66
2018-10-15T03:04:21.043Z,954.68
2018-10-15T03:05:21.048Z,954.68
2018-10-15T03:06:21.053Z,954.66
2018-10-15T03:07:21.059Z,954.67
2018-10-15T03:08:22.129Z,954.62
2018-10-15T03:09:21.068Z,954.64
2018-10-15T03:10:21.073Z,954.68
2018-10-15T03:11:21.090Z,954.68
2018-10-15T03:12:21.084Z,954.67
2018-10-15T03:13:21.090Z,954.69
2018-10-15T03:14:21.094Z,954.71
2018-10-15T03:15:21.098Z,954.73
2018-10-15T03:16:21.103Z,954.75
2018-10-15T03:17:21.108Z,954.76
2018-10-15T03:18:21.113Z,954.79
2018-10-15T03:19:21.118Z,954.81
2018-10-15T03:20:21.199Z,954.8
2018-10-15T03:21:21.130Z,954.79
2018-10-15T03:22:21.133Z,954.82
2018-10-15T03:23:21.387Z,954.78
2018-10-15T03:24:21.141Z,954.78
2018-10-15T03:25:21.148Z,954.77
2018-10-15T03:26:21.151Z,954.78
2018-10-15T03:27:21.157Z,954.79
2018-10-15T03:28:21.261Z,954.82
2018-10-15T03:29:21.166Z,954.83
2018-10-15T03:30:21.172Z,954.8
2018-10-15T03:31:21.176Z,954.79
2018-10-15T03:32:21.185Z,954.83
2018-10-15T03:33:21.184Z,954.82
2018-10-15T03:34:21.191Z,954.85
2018-10-15T03:35:21.195Z,954.85
2018-10-15T03:36:21.203Z,954.87
2018-10-15T03:37:21.206Z,954.84
2018-10-15T03:38:21.262Z,954.82
2018-10-15T03:39:21.216Z,954.85
2018-10-15T03:40:21.222Z,954.83
2018-10-15T03:41:21.227Z,954.81
2018-10-15T03:42:21.234Z,954.87
2018-10-15T03:43:21.242Z,954.86
2018-10-15T03:44:21.240Z,954.84
2018-10-15T03:45:21.245Z,954.86
2018-10-15T03:46:21.260Z,954.83
2018-10-15T03:47:21.256Z,954.76
2018-10-15T03:48:21.310Z,954.78
2018-10-15T03:49:21.265Z,954.76
2018-10-15T03:50:21.269Z,954.75
2018-10-15T03:51:21.275Z,954.78
2018-10-15T03:52:21.279Z,954.75
2018-10-15T03:53:21.290Z,954.71
2018-10-15T03:54:21.291Z,954.7
2018-10-15T03:55:21.294Z,954.75
2018-10-15T03:56:21.304Z,954.72
2018-10-15T03:57:21.315Z,954.7
2018-10-15T03:58:21.309Z,954.75
2018-10-15T03:59:21.321Z,954.74
2018-10-15T04:00:21.319Z,954.72
2018-10-15T04:01:21.325Z,954.74
2018-10-15T04:02:21.387Z,954.76
2018-10-15T04:03:21.383Z,954.76
2018-10-15T04:04:21.339Z,954.77
2018-10-15T04:05:21.343Z,954.81
2018-10-15T04:06:21.346Z,954.82
2018-10-15T04:07:21.352Z,954.8
2018-10-15T04:08:21.416Z,954.84
2018-10-15T04:09:21.363Z,954.81
2018-10-15T04:10:21.366Z,954.82
2018-10-15T04:11:21.372Z,954.85
2018-10-15T04:12:21.378Z,954.86
2018-10-15T04:13:21.423Z,954.82
2018-10-15T04:14:21.397Z,954.86
2018-10-15T04:15:21.396Z,954.83
2018-10-15T04:16:21.395Z,954.82
2018-10-15T04:17:21.401Z,954.8
2018-10-15T04:18:21.460Z,954.79
2018-10-15T04:19:21.410Z,954.77
2018-10-15T04:20:21.433Z,954.78
2018-10-15T04:21:21.419Z,954.79
2018-10-15T04:22:21.424Z,954.81
2018-10-15T04:23:21.430Z,954.8
2018-10-15T04:24:21.433Z,954.77
2018-10-15T04:25:21.437Z,954.83
2018-10-15T04:26:21.442Z,954.84
2018-10-15T04:27:21.446Z,954.81
2018-10-15T04:28:21.451Z,954.9
2018-10-15T04:29:21.456Z,954.85
2018-10-15T04:30:21.461Z,954.81
2018-10-15T04:31:21.471Z,954.82
2018-10-15T04:32:21.470Z,954.83
2018-10-15T04:33:21.528Z,954.82
2018-10-15T04:34:21.480Z,954.82
2018-10-15T04:35:21.486Z,954.83
2018-10-15T04:36:21.488Z,954.81
2018-10-15T04:37:21.493Z,954.84
2018-10-15T04:38:21.499Z,954.81
2018-10-15T04:39:21.508Z,954.8
2018-10-15T04:40:21.507Z,954.83
2018-10-15T04:41:21.512Z,954.79
2018-10-15T04:42:21.517Z,954.81
2018-10-15T04:43:21.523Z,954.77
2018-10-15T04:44:21.526Z,954.81
2018-10-15T04:45:21.532Z,954.83
2018-10-15T04:46:21.539Z,954.82
2018-10-15T04:47:21.544Z,954.86
2018-10-15T04:48:21.595Z,954.9
2018-10-15T04:49:21.672Z,954.91
2018-10-15T04:50:21.553Z,954.87
2018-10-15T04:51:21.557Z,954.92
2018-10-15T04:52:21.564Z,954.94
2018-10-15T04:53:21.568Z,954.93
2018-10-15T04:54:21.571Z,954.92
2018-10-15T04:55:21.603Z,954.92
2018-10-15T04:56:21.580Z,954.9
2018-10-15T04:57:21.584Z,954.92
2018-10-15T04:58:21.589Z,954.92
2018-10-15T04:59:21.600Z,954.96
2018-10-15T05:00:21.663Z,954.97
2018-10-15T05:01:21.606Z,954.95
2018-10-15T05:02:21.630Z,954.99
2018-10-15T05:03:21.667Z,954.97
2018-10-15T05:04:21.616Z,954.99
2018-10-15T05:05:21.620Z,954.98
2018-10-15T05:06:21.814Z,954.97
2018-10-15T05:07:21.632Z,955
2018-10-15T05:08:21.635Z,955.02
2018-10-15T05:09:21.670Z,955.02
2018-10-15T05:10:21.645Z,955
2018-10-15T05:11:21.649Z,955
2018-10-15T05:12:21.711Z,954.98
2018-10-15T05:13:21.657Z,954.98
2018-10-15T05:14:21.673Z,954.98
2018-10-15T05:15:21.667Z,954.94
2018-10-15T05:16:21.670Z,954.98
2018-10-15T05:17:21.674Z,954.97
2018-10-15T05:18:21.840Z,954.98
2018-10-15T05:19:21.682Z,954.96
2018-10-15T05:20:21.687Z,954.99
2018-10-15T05:21:21.828Z,955
2018-10-15T05:22:21.697Z,955.03
2018-10-15T05:23:21.701Z,955.01
2018-10-15T05:24:21.760Z,955.06
2018-10-15T05:25:21.709Z,955.06
2018-10-15T05:26:21.714Z,955.05
2018-10-15T05:27:21.723Z,955.05
2018-10-15T05:28:21.726Z,955.08
2018-10-15T05:29:21.731Z,955.06
2018-10-15T05:30:21.858Z,955.05
2018-10-15T05:31:21.738Z,955.04
2018-10-15T05:32:21.744Z,955.02
2018-10-15T05:33:21.801Z,955.06
2018-10-15T05:34:21.751Z,955.09
2018-10-15T05:35:21.758Z,955.1
2018-10-15T05:36:21.862Z,955.07
2018-10-15T05:37:21.764Z,955.08
2018-10-15T05:38:21.771Z,955.07
2018-10-15T05:39:21.774Z,955.1
2018-10-15T05:40:21.779Z,955.08
2018-10-15T05:41:21.784Z,955.11
2018-10-15T05:42:21.837Z,955.13
2018-10-15T05:43:21.793Z,955.19
2018-10-15T05:44:21.797Z,955.17
2018-10-15T05:45:21.801Z,955.14
2018-10-15T05:46:21.813Z,955.17
2018-10-15T05:47:21.809Z,955.21
2018-10-15T05:48:21.954Z,955.15
2018-10-15T05:49:21.819Z,955.16
2018-10-15T05:50:21.823Z,955.18
2018-10-15T05:51:21.829Z,955.2
2018-10-15T05:52:21.833Z,955.19
2018-10-15T05:53:21.835Z,955.21
2018-10-15T05:54:21.934Z,955.17
2018-10-15T05:55:21.846Z,955.18
2018-10-15T05:56:21.849Z,955.15
2018-10-15T05:57:21.854Z,955.15
2018-10-15T05:58:21.858Z,955.17
2018-10-15T05:59:21.863Z,955.17
2018-10-15T06:00:21.954Z,955.18
2018-10-15T06:01:21.870Z,955.2
2018-10-15T06:02:21.876Z,955.22
2018-10-15T06:03:21.930Z,955.24
2018-10-15T06:04:21.885Z,955.22
2018-10-15T06:05:21.890Z,955.21
2018-10-15T06:06:22.032Z,955.18
2018-10-15T06:07:21.898Z,955.22
2018-10-15T06:08:21.904Z,955.25
2018-10-15T06:09:21.907Z,955.26
2018-10-15T06:10:21.914Z,955.28
2018-10-15T06:11:21.922Z,955.26
2018-10-15T06:12:22.111Z,955.29
2018-10-15T06:13:22.001Z,955.28
2018-10-15T06:14:21.930Z,955.32
2018-10-15T06:15:21.943Z,955.33
2018-10-15T06:16:21.941Z,955.32
2018-10-15T06:17:21.943Z,955.3
2018-10-15T06:18:22.142Z,955.33
2018-10-15T06:19:21.953Z,955.35
2018-10-15T06:20:21.957Z,955.31
2018-10-15T06:21:21.961Z,955.33
2018-10-15T06:22:21.966Z,955.29
2018-10-15T06:23:21.971Z,955.34
2018-10-15T06:24:22.035Z,955.31
2018-10-15T06:25:21.979Z,955.33
2018-10-15T06:26:21.985Z,955.36
2018-10-15T06:27:21.991Z,955.35
2018-10-15T06:28:22.049Z,955.4
2018-10-15T06:29:21.998Z,955.37
2018-10-15T06:30:22.175Z,955.39
2018-10-15T06:31:22.009Z,955.37
2018-10-15T06:32:22.012Z,955.41
2018-10-15T06:33:22.066Z,955.44
2018-10-15T06:34:22.025Z,955.42
2018-10-15T06:35:22.026Z,955.47
2018-10-15T06:36:22.086Z,955.43
2018-10-15T06:37:22.111Z,955.44
2018-10-15T06:38:22.119Z,955.42
2018-10-15T06:39:22.182Z,955.43
2018-10-15T06:40:22.051Z,955.43
2018-10-15T06:41:22.146Z,955.39
2018-10-15T06:42:22.101Z,955.4
2018-10-15T06:43:22.124Z,955.42
2018-10-15T06:44:22.087Z,955.38
2018-10-15T06:45:22.232Z,955.44
2018-10-15T06:46:22.092Z,955.46
2018-10-15T06:47:22.191Z,955.47
2018-10-15T06:48:22.150Z,955.49
2018-10-15T06:49:22.173Z,955.47
2018-10-15T06:50:22.101Z,955.47
2018-10-15T06:51:22.200Z,955.5
2018-10-15T06:52:22.109Z,955.51
2018-10-15T06:53:22.266Z,955.51
2018-10-15T06:54:22.120Z,955.53
2018-10-15T06:55:22.212Z,955.58
2018-10-15T06:56:22.177Z,955.57
2018-10-15T06:57:22.157Z,955.56
2018-10-15T06:58:22.141Z,955.51
2018-10-15T06:59:22.250Z,955.53
2018-10-15T07:00:22.254Z,955.56
2018-10-15T07:01:22.290Z,955.54
2018-10-15T07:02:22.265Z,955.58
2018-10-15T07:03:22.330Z,955.58
2018-10-15T07:04:22.205Z,955.55
2018-10-15T07:05:22.176Z,955.55
2018-10-15T07:06:22.405Z,955.58
2018-10-15T07:07:22.316Z,955.56
2018-10-15T07:08:22.249Z,955.58
2018-10-15T07:09:22.198Z,955.56
2018-10-15T07:10:22.305Z,955.58
2018-10-15T07:11:22.211Z,955.55
2018-10-15T07:12:22.239Z,955.58
2018-10-15T07:13:22.310Z,955.52
2018-10-15T07:14:22.352Z,955.52
2018-10-15T07:15:22.232Z,955.54
2018-10-15T07:16:22.344Z,955.53
2018-10-15T07:17:22.244Z,955.54
2018-10-15T07:18:22.328Z,955.55
2018-10-15T07:19:22.342Z,955.56
2018-10-15T07:20:22.414Z,955.53
2018-10-15T07:21:22.267Z,955.54
2018-10-15T07:22:22.375Z,955.59
2018-10-15T07:23:22.327Z,955.57
2018-10-15T07:24:22.390Z,955.59
2018-10-15T07:25:22.290Z,955.64
2018-10-15T07:26:22.397Z,955.64
2018-10-15T07:27:22.303Z,955.64
2018-10-15T07:28:22.406Z,955.63
2018-10-15T07:29:22.315Z,955.66
2018-10-15T07:30:22.431Z,955.67
2018-10-15T07:31:22.329Z,955.67
2018-10-15T07:32:22.446Z,955.65
2018-10-15T07:33:22.353Z,955.69
2018-10-15T07:34:22.429Z,955.68
2018-10-15T07:35:22.351Z,955.7
2018-10-15T07:36:22.452Z,955.74
2018-10-15T07:37:22.365Z,955.69
2018-10-15T07:38:22.522Z,955.73
2018-10-15T07:39:22.427Z,955.71
2018-10-15T07:40:22.435Z,955.74
2018-10-15T07:41:22.391Z,955.75
2018-10-15T07:42:22.503Z,955.78
2018-10-15T07:43:22.406Z,955.77
2018-10-15T07:44:22.504Z,955.83
2018-10-15T07:45:22.416Z,955.85
2018-10-15T07:46:22.550Z,955.8
2018-10-15T07:47:22.433Z,955.84
2018-10-15T07:48:22.537Z,955.85
2018-10-15T07:49:22.442Z,955.88
2018-10-15T07:50:22.562Z,955.87
2018-10-15T07:51:22.456Z,955.86
2018-10-15T07:52:22.547Z,955.79
2018-10-15T07:53:22.562Z,955.83
2018-10-15T07:54:22.580Z,955.83
2018-10-15T07:55:22.484Z,955.83
2018-10-15T07:56:22.668Z,955.83
2018-10-15T07:57:22.497Z,955.85
2018-10-15T07:58:22.610Z,955.83
2018-10-15T07:59:22.568Z,955.78
2018-10-15T08:00:22.621Z,955.82
2018-10-15T08:01:22.546Z,955.83
2018-10-15T08:02:22.602Z,955.84
2018-10-15T08:03:22.539Z,955.84
2018-10-15T08:04:22.658Z,955.82
2018-10-15T08:05:22.662Z,955.88
2018-10-15T08:06:22.569Z,955.83
2018-10-15T08:07:22.566Z,955.85
2018-10-15T08:08:22.716Z,955.86
2018-10-15T08:09:22.583Z,955.84
2018-10-15T08:10:22.696Z,955.85
2018-10-15T08:11:22.671Z,955.84
2018-10-15T08:12:22.604Z,955.86
2018-10-15T08:13:22.612Z,955.88
2018-10-15T08:14:22.864Z,955.88
2018-10-15T08:15:22.792Z,955.88
2018-10-15T08:16:22.732Z,955.85
2018-10-15T08:17:22.642Z,955.85
2018-10-15T08:18:22.699Z,955.86
2018-10-15T08:19:22.657Z,955.86
2018-10-15T08:20:22.747Z,955.86
2018-10-15T08:21:22.673Z,955.91
2018-10-15T08:22:22.763Z,955.92
2018-10-15T08:23:22.738Z,955.95
2018-10-15T08:24:22.696Z,955.97
2018-10-15T08:25:22.708Z,955.97
2018-10-15T08:26:22.713Z,955.95
2018-10-15T08:27:22.719Z,955.94
2018-10-15T08:28:22.813Z,955.96
2018-10-15T08:29:22.734Z,955.98
2018-10-15T08:30:22.742Z,955.98
2018-10-15T08:31:22.751Z,955.94
2018-10-15T08:32:22.761Z,955.96
2018-10-15T08:33:22.766Z,955.97
2018-10-15T08:34:22.775Z,955.97
2018-10-15T08:35:22.838Z,956
2018-10-15T08:36:22.794Z,955.95
2018-10-15T08:37:22.798Z,955.94
2018-10-15T08:38:22.908Z,955.9
2018-10-15T08:39:22.815Z,955.91
2018-10-15T08:40:22.824Z,955.86
2018-10-15T08:41:22.918Z,955.83
2018-10-15T08:42:22.847Z,955.83
2018-10-15T08:43:22.851Z,955.8
2018-10-15T08:44:22.860Z,955.83
2018-10-15T08:45:22.869Z,955.8
2018-10-15T08:46:22.883Z,955.82
2018-10-15T08:47:22.889Z,955.82
2018-10-15T08:48:22.992Z,955.79
2018-10-15T08:49:22.902Z,955.8
2018-10-15T08:50:22.932Z,955.77
2018-10-15T08:51:22.919Z,955.81
2018-10-15T08:52:22.996Z,955.8
2018-10-15T08:53:23.002Z,955.81
2018-10-15T08:54:23.021Z,955.78
2018-10-15T08:55:22.955Z,955.75
2018-10-15T08:56:22.965Z,955.79
2018-10-15T08:57:22.974Z,955.73
2018-10-15T08:58:22.983Z,955.73
2018-10-15T08:59:22.991Z,955.78
2018-10-15T09:00:23.002Z,955.72
2018-10-15T09:01:23.010Z,955.74
2018-10-15T09:02:23.019Z,955.72
2018-10-15T09:03:23.078Z,955.76
2018-10-15T09:04:23.037Z,955.75
2018-10-15T09:05:23.046Z,955.73
2018-10-15T09:06:23.131Z,955.71
2018-10-15T09:07:23.102Z,955.75
2018-10-15T09:08:23.117Z,955.75
2018-10-15T09:09:23.295Z,955.74
2018-10-15T09:10:23.092Z,955.78
2018-10-15T09:11:23.102Z,955.76
2018-10-15T09:12:23.218Z,955.75
2018-10-15T09:13:23.225Z,955.76
2018-10-15T09:14:23.148Z,955.77
2018-10-15T09:15:23.139Z,955.73
2018-10-15T09:16:23.149Z,955.8
2018-10-15T09:17:23.160Z,955.75
2018-10-15T09:18:23.318Z,955.77
2018-10-15T09:19:23.178Z,955.74
2018-10-15T09:20:23.248Z,955.76
2018-10-15T09:21:23.236Z,955.75
2018-10-15T09:22:23.208Z,955.74
2018-10-15T09:23:23.217Z,955.76
2018-10-15T09:24:23.230Z,955.73
2018-10-15T09:25:23.237Z,955.77
2018-10-15T09:26:23.247Z,955.74
2018-10-15T09:27:23.389Z,955.73
2018-10-15T09:28:23.366Z,955.74
2018-10-15T09:29:23.275Z,955.77
2018-10-15T09:30:23.286Z,955.72
2018-10-15T09:31:23.359Z,955.71
2018-10-15T09:32:23.305Z,955.7
2018-10-15T09:33:23.417Z,955.71
2018-10-15T09:34:23.327Z,955.72
2018-10-15T09:35:23.417Z,955.73
2018-10-15T09:36:23.346Z,955.72
2018-10-15T09:37:23.356Z,955.75
2018-10-15T09:38:23.376Z,955.73
2018-10-15T09:39:23.376Z,955.7
2018-10-15T09:40:23.386Z,955.75
2018-10-15T09:41:23.476Z,955.75
2018-10-15T09:42:23.404Z,955.75
2018-10-15T09:43:23.466Z,955.73
2018-10-15T09:44:23.428Z,955.78
2018-10-15T09:45:23.438Z,955.79
2018-10-15T09:46:23.447Z,955.77
2018-10-15T09:47:23.459Z,955.74
2018-10-15T09:48:23.469Z,955.72
2018-10-15T09:49:23.480Z,955.75
2018-10-15T09:50:23.538Z,955.73
2018-10-15T09:51:23.499Z,955.75
2018-10-15T09:52:23.514Z,955.74
2018-10-15T09:53:23.599Z,955.71
2018-10-15T09:54:23.530Z,955.7
2018-10-15T09:55:23.541Z,955.75
2018-10-15T09:56:23.551Z,955.75
2018-10-15T09:57:23.561Z,955.75
2018-10-15T09:58:23.574Z,955.75
2018-10-15T09:59:23.591Z,955.79
2018-10-15T10:00:23.596Z,955.77
2018-10-15T10:01:23.605Z,955.8
2018-10-15T10:02:23.614Z,955.82
2018-10-15T10:03:23.625Z,955.84
2018-10-15T10:04:23.635Z,955.84
2018-10-15T10:05:23.652Z,955.86
2018-10-15T10:06:23.658Z,955.84
2018-10-15T10:07:23.741Z,955.83
2018-10-15T10:08:23.733Z,955.85
2018-10-15T10:09:23.695Z,955.82
2018-10-15T10:10:23.720Z,955.81
2018-10-15T10:11:23.724Z,955.84
2018-10-15T10:12:23.732Z,955.85
2018-10-15T10:13:23.745Z,955.81
2018-10-15T10:14:23.806Z,955.81
2018-10-15T10:15:23.773Z,955.8
2018-10-15T10:16:23.785Z,955.83
2018-10-15T10:17:23.887Z,955.82
2018-10-15T10:18:23.933Z,955.84
2018-10-15T10:19:23.837Z,955.81
2018-10-15T10:20:23.845Z,955.86
2018-10-15T10:21:23.859Z,955.79
2018-10-15T10:22:23.955Z,955.79
2018-10-15T10:23:23.939Z,955.82
2018-10-15T10:24:23.906Z,955.77
2018-10-15T10:25:23.921Z,955.78
2018-10-15T10:26:23.937Z,955.76
2018-10-15T10:27:24.070Z,955.76
2018-10-15T10:28:24.062Z,955.74
2018-10-15T10:29:24.075Z,955.73
2018-10-15T10:30:24.005Z,955.77
2018-10-15T10:31:24.021Z,955.8
2018-10-15T10:32:24.040Z,955.77
2018-10-15T10:33:24.107Z,955.77
2018-10-15T10:34:24.072Z,955.78
2018-10-15T10:35:24.163Z,955.76
2018-10-15T10:36:24.111Z,955.73
2018-10-15T10:37:24.127Z,955.74
2018-10-15T10:38:24.205Z,955.75
2018-10-15T10:39:24.165Z,955.75
2018-10-15T10:40:24.334Z,955.73
2018-10-15T10:41:24.204Z,955.76
2018-10-15T10:42:24.222Z,955.75
2018-10-15T10:43:24.241Z,955.74
2018-10-15T10:44:24.259Z,955.73
2018-10-15T10:45:24.337Z,955.71
2018-10-15T10:46:24.301Z,955.71
2018-10-15T10:47:24.424Z,955.66
2018-10-15T10:48:24.340Z,955.65
2018-10-15T10:49:24.368Z,955.65
2018-10-15T10:50:24.382Z,955.67
2018-10-15T10:51:24.402Z,955.72
2018-10-15T10:52:24.422Z,955.63
2018-10-15T10:53:24.494Z,955.67
2018-10-15T10:54:24.466Z,955.63
2018-10-15T10:55:24.483Z,955.63
2018-10-15T10:56:24.504Z,955.65
2018-10-15T10:57:24.557Z,955.64
2018-10-15T10:58:24.602Z,955.63
2018-10-15T10:59:24.578Z,955.63
2018-10-15T11:00:24.591Z,955.6
2018-10-15T11:01:24.610Z,955.59
2018-10-15T11:02:24.692Z,955.64
2018-10-15T11:03:24.655Z,955.63
2018-10-15T11:04:24.679Z,955.62
2018-10-15T11:05:24.701Z,955.65
2018-10-15T11:06:24.723Z,955.6
2018-10-15T11:07:24.744Z,955.64
2018-10-15T11:08:24.873Z,955.66
2018-10-15T11:09:24.791Z,955.69
2018-10-15T11:10:24.812Z,955.67
2018-10-15T11:11:24.839Z,955.71
2018-10-15T11:12:24.864Z,955.7
2018-10-15T11:13:24.932Z,955.65
2018-10-15T11:14:24.909Z,955.71
2018-10-15T11:15:24.928Z,955.7
2018-10-15T11:16:24.948Z,955.71
2018-10-15T11:17:24.971Z,955.7
2018-10-15T11:18:25.036Z,955.78
2018-10-15T11:19:25.018Z,955.78
2018-10-15T11:20:25.043Z,955.75
2018-10-15T11:21:25.065Z,955.75
2018-10-15T11:22:25.115Z,955.75
2018-10-15T11:23:25.116Z,955.77
2018-10-15T11:24:25.137Z,955.7
2018-10-15T11:25:25.161Z,955.77
2018-10-15T11:26:25.185Z,955.74
2018-10-15T11:27:25.214Z,955.75
2018-10-15T11:28:25.332Z,955.7
2018-10-15T11:29:25.257Z,955.73
2018-10-15T11:30:25.284Z,955.72
2018-10-15T11:31:25.307Z,955.74
2018-10-15T11:32:25.329Z,955.72
2018-10-15T11:33:25.358Z,955.67
2018-10-15T11:34:25.484Z,955.7
2018-10-15T11:35:25.405Z,955.68
2018-10-15T11:36:25.429Z,955.68
2018-10-15T11:37:25.453Z,955.69
2018-10-15T11:38:26.481Z,955.74
2018-10-15T11:39:25.506Z,955.7
2018-10-15T11:40:25.526Z,955.7
2018-10-15T11:41:25.552Z,955.69
2018-10-15T11:42:25.576Z,955.66
2018-10-15T11:43:25.729Z,955.67
2018-10-15T11:44:25.624Z,955.68
2018-10-15T11:45:25.649Z,955.65
2018-10-15T11:46:25.707Z,955.66
2018-10-15T11:47:25.699Z,955.65
2018-10-15T11:48:25.774Z,955.67
2018-10-15T11:49:25.749Z,955.64
2018-10-15T11:50:25.773Z,955.65
2018-10-15T11:51:25.866Z,955.6
2018-10-15T11:52:25.824Z,955.62
2018-10-15T11:53:25.897Z,955.6
2018-10-15T11:54:25.873Z,955.56
2018-10-15T11:55:25.899Z,955.57
2018-10-15T11:56:25.924Z,955.55
2018-10-15T11:57:25.949Z,955.55
2018-10-15T11:58:25.975Z,955.55
2018-10-15T11:59:26.047Z,955.55
2018-10-15T12:00:26.035Z,955.49
2018-10-15T12:01:26.053Z,955.51
2018-10-15T12:02:26.080Z,955.48
2018-10-15T12:03:26.150Z,955.5
2018-10-15T12:04:26.128Z,955.51
2018-10-15T12:05:26.152Z,955.5
2018-10-15T12:06:26.177Z,955.5
2018-10-15T12:07:26.203Z,955.5
2018-10-15T12:08:26.228Z,955.5
2018-10-15T12:09:26.254Z,955.49
2018-10-15T12:10:26.279Z,955.48
2018-10-15T12:11:26.306Z,955.48
2018-10-15T12:12:26.334Z,955.5
2018-10-15T12:13:26.356Z,955.52
2018-10-15T12:14:26.382Z,955.5
2018-10-15T12:15:26.408Z,955.55
2018-10-15T12:16:26.432Z,955.5
2018-10-15T12:17:26.460Z,955.5
2018-10-15T12:18:26.541Z,955.46
2018-10-15T12:19:26.510Z,955.48
2018-10-15T12:20:26.536Z,955.49
2018-10-15T12:21:26.563Z,955.49
2018-10-15T12:22:26.642Z,955.47
2018-10-15T12:23:26.613Z,955.48
2018-10-15T12:24:26.638Z,955.47
2018-10-15T12:25:26.666Z,955.47
2018-10-15T12:26:26.691Z,955.51
2018-10-15T12:27:26.715Z,955.45
2018-10-15T12:28:26.743Z,955.47
2018-10-15T12:29:26.768Z,955.44
2018-10-15T12:30:26.794Z,955.43
2018-10-15T12:31:26.821Z,955.4